sensor_id;sensor_type;location;lat;lon;timestamp;P1;durP1;ratioP1;P2;durP2;ratioP2
29362;SDS011;16349;53.672;10.014;2023-07-28T00:02:11;5.20;;;4.63;;
29362;SDS011;16349;53.672;10.014;2023-07-28T00:04:39;5.00;;;4.70;;
29362;SDS011;16349;53.672;10.014;2023-07-28T00:07:06;5.60;;;5.03;;
29362;SDS011;16349;53.672;10.014;2023-07-28T00:09:33;6.50;;;5.00;;
29362;SDS011;16349;53.672;10.014;2023-07-28T00:12:00;5.47;;;4.97;;
29362;SDS011;16349;53.672;10.014;2023-07-28T00:14:27;4.80;;;4.50;;
29362;SDS011;16349;53.672;10.014;2023-07-28T00:16:55;5.30;;;4.80;;
29362;SDS011;16349;53.672;10.014;2023-07-28T00:19:23;5.20;;;4.80;;
29362;SDS011;16349;53.672;10.014;2023-07-28T00:21:51;5.57;;;5.17;;
29362;SDS011;16349;53.672;10.014;2023-07-28T00:24:18;5.20;;;4.70;;
29362;SDS011;16349;53.672;10.014;2023-07-28T00:26:45;5.47;;;5.07;;
29362;SDS011;16349;53.672;10.014;2023-07-28T00:29:12;5.43;;;4.93;;
29362;SDS011;16349;53.672;10.014;2023-07-28T00:31:39;5.70;;;5.20;;
29362;SDS011;16349;53.672;10.014;2023-07-28T00:34:07;5.30;;;4.90;;
29362;SDS011;16349;53.672;10.014;2023-07-28T00:36:34;5.90;;;5.33;;
29362;SDS011;16349;53.672;10.014;2023-07-28T00:39:02;5.30;;;4.90;;
29362;SDS011;16349;53.672;10.014;2023-07-28T00:41:29;4.80;;;4.50;;
29362;SDS011;16349;53.672;10.014;2023-07-28T00:43:55;5.23;;;4.83;;
29362;SDS011;16349;53.672;10.014;2023-07-28T00:46:22;5.10;;;4.70;;
29362;SDS011;16349;53.672;10.014;2023-07-28T00:48:50;5.43;;;5.03;;
29362;SDS011;16349;53.672;10.014;2023-07-28T00:51:17;5.80;;;5.30;;
29362;SDS011;16349;53.672;10.014;2023-07-28T00:53:44;4.80;;;4.40;;
29362;SDS011;16349;53.672;10.014;2023-07-28T00:56:13;4.40;;;4.10;;
29362;SDS011;16349;53.672;10.014;2023-07-28T00:58:40;4.93;;;4.63;;
29362;SDS011;16349;53.672;10.014;2023-07-28T01:01:08;4.63;;;4.23;;
29362;SDS011;16349;53.672;10.014;2023-07-28T01:03:35;4.63;;;4.23;;
29362;SDS011;16349;53.672;10.014;2023-07-28T01:06:06;5.10;;;4.70;;
29362;SDS011;16349;53.672;10.014;2023-07-28T01:08:42;5.03;;;4.70;;
29362;SDS011;16349;53.672;10.014;2023-07-28T01:11:15;4.70;;;4.40;;
29362;SDS011;16349;53.672;10.014;2023-07-28T01:13:42;5.07;;;4.63;;
29362;SDS011;16349;53.672;10.014;2023-07-28T01:16:08;4.43;;;4.10;;
29362;SDS011;16349;53.672;10.014;2023-07-28T01:18:35;4.70;;;4.30;;
29362;SDS011;16349;53.672;10.014;2023-07-28T01:21:03;4.57;;;4.27;;
29362;SDS011;16349;53.672;10.014;2023-07-28T01:23:37;4.73;;;4.33;;
29362;SDS011;16349;53.672;10.014;2023-07-28T01:26:09;4.47;;;4.07;;
29362;SDS011;16349;53.672;10.014;2023-07-28T01:28:39;5.37;;;4.87;;
29362;SDS011;16349;53.672;10.014;2023-07-28T01:31:07;4.50;;;4.20;;
29362;SDS011;16349;53.672;10.014;2023-07-28T01:33:34;4.30;;;4.00;;
29362;SDS011;16349;53.672;10.014;2023-07-28T01:36:02;4.30;;;3.90;;
29362;SDS011;16349;53.672;10.014;2023-07-28T01:38:29;4.80;;;4.50;;
29362;SDS011;16349;53.672;10.014;2023-07-28T01:40:56;4.70;;;4.30;;
29362;SDS011;16349;53.672;10.014;2023-07-28T01:43:23;4.40;;;4.00;;
29362;SDS011;16349;53.672;10.014;2023-07-28T01:45:51;4.13;;;3.83;;
29362;SDS011;16349;53.672;10.014;2023-07-28T01:48:18;4.20;;;3.90;;
29362;SDS011;16349;53.672;10.014;2023-07-28T01:50:45;4.23;;;3.83;;
29362;SDS011;16349;53.672;10.014;2023-07-28T01:53:12;3.87;;;3.60;;
29362;SDS011;16349;53.672;10.014;2023-07-28T01:55:39;3.87;;;3.67;;
29362;SDS011;16349;53.672;10.014;2023-07-28T01:58:05;4.33;;;4.00;;
29362;SDS011;16349;53.672;10.014;2023-07-28T02:00:31;4.17;;;3.83;;
29362;SDS011;16349;53.672;10.014;2023-07-28T02:02:59;4.17;;;3.87;;
29362;SDS011;16349;53.672;10.014;2023-07-28T02:05:28;4.00;;;3.80;;
29362;SDS011;16349;53.672;10.014;2023-07-28T02:07:56;4.13;;;3.83;;
29362;SDS011;16349;53.672;10.014;2023-07-28T02:10:23;4.40;;;4.10;;
29362;SDS011;16349;53.672;10.014;2023-07-28T02:12:50;4.10;;;3.80;;
29362;SDS011;16349;53.672;10.014;2023-07-28T02:15:17;3.83;;;3.60;;
29362;SDS011;16349;53.672;10.014;2023-07-28T02:17:44;3.80;;;3.60;;
29362;SDS011;16349;53.672;10.014;2023-07-28T02:20:12;4.20;;;3.80;;
29362;SDS011;16349;53.672;10.014;2023-07-28T02:22:40;3.90;;;3.70;;
29362;SDS011;16349;53.672;10.014;2023-07-28T02:25:07;4.10;;;3.80;;
29362;SDS011;16349;53.672;10.014;2023-07-28T02:27:35;4.23;;;3.93;;
29362;SDS011;16349;53.672;10.014;2023-07-28T02:30:02;5.30;;;4.90;;
29362;SDS011;16349;53.672;10.014;2023-07-28T02:32:29;4.83;;;4.53;;
29362;SDS011;16349;53.672;10.014;2023-07-28T02:34:56;5.00;;;4.60;;
29362;SDS011;16349;53.672;10.014;2023-07-28T02:37:25;5.13;;;4.70;;
29362;SDS011;16349;53.672;10.014;2023-07-28T02:39:52;5.57;;;5.17;;
29362;SDS011;16349;53.672;10.014;2023-07-28T02:42:19;5.63;;;5.23;;
29362;SDS011;16349;53.672;10.014;2023-07-28T02:44:46;4.97;;;4.67;;
29362;SDS011;16349;53.672;10.014;2023-07-28T02:47:13;5.77;;;5.23;;
29362;SDS011;16349;53.672;10.014;2023-07-28T02:49:40;4.83;;;4.30;;
29362;SDS011;16349;53.672;10.014;2023-07-28T02:52:08;5.10;;;4.70;;
29362;SDS011;16349;53.672;10.014;2023-07-28T02:54:36;5.33;;;4.73;;
29362;SDS011;16349;53.672;10.014;2023-07-28T02:57:03;4.93;;;4.63;;
29362;SDS011;16349;53.672;10.014;2023-07-28T02:59:30;4.50;;;4.10;;
29362;SDS011;16349;53.672;10.014;2023-07-28T03:01:57;4.67;;;4.30;;
29362;SDS011;16349;53.672;10.014;2023-07-28T03:04:24;3.53;;;3.33;;
29362;SDS011;16349;53.672;10.014;2023-07-28T03:07:14;3.60;;;3.40;;
29362;SDS011;16349;53.672;10.014;2023-07-28T03:09:44;3.80;;;3.50;;
29362;SDS011;16349;53.672;10.014;2023-07-28T03:12:12;3.90;;;3.60;;
29362;SDS011;16349;53.672;10.014;2023-07-28T03:14:39;3.20;;;3.00;;
29362;SDS011;16349;53.672;10.014;2023-07-28T03:17:05;3.00;;;2.80;;
29362;SDS011;16349;53.672;10.014;2023-07-28T03:19:32;3.23;;;3.03;;
29362;SDS011;16349;53.672;10.014;2023-07-28T03:21:59;3.33;;;3.07;;
29362;SDS011;16349;53.672;10.014;2023-07-28T03:24:26;3.37;;;3.17;;
29362;SDS011;16349;53.672;10.014;2023-07-28T03:26:54;3.60;;;3.20;;
29362;SDS011;16349;53.672;10.014;2023-07-28T03:29:21;3.07;;;2.87;;
29362;SDS011;16349;53.672;10.014;2023-07-28T03:31:49;4.20;;;3.17;;
29362;SDS011;16349;53.672;10.014;2023-07-28T03:34:17;3.07;;;2.87;;
29362;SDS011;16349;53.672;10.014;2023-07-28T03:36:44;2.77;;;2.57;;
29362;SDS011;16349;53.672;10.014;2023-07-28T03:39:12;3.33;;;3.03;;
29362;SDS011;16349;53.672;10.014;2023-07-28T03:41:39;2.93;;;2.73;;
29362;SDS011;16349;53.672;10.014;2023-07-28T03:44:07;3.37;;;3.17;;
29362;SDS011;16349;53.672;10.014;2023-07-28T03:46:34;3.43;;;3.23;;
29362;SDS011;16349;53.672;10.014;2023-07-28T03:49:01;3.00;;;2.80;;
29362;SDS011;16349;53.672;10.014;2023-07-28T03:51:28;3.50;;;3.10;;
29362;SDS011;16349;53.672;10.014;2023-07-28T03:53:55;2.97;;;2.77;;
29362;SDS011;16349;53.672;10.014;2023-07-28T03:56:22;3.60;;;3.40;;
29362;SDS011;16349;53.672;10.014;2023-07-28T03:58:48;4.10;;;3.83;;
29362;SDS011;16349;53.672;10.014;2023-07-28T04:01:17;4.40;;;4.10;;
29362;SDS011;16349;53.672;10.014;2023-07-28T04:03:43;4.50;;;4.20;;
29362;SDS011;16349;53.672;10.014;2023-07-28T04:06:11;4.27;;;3.97;;
29362;SDS011;16349;53.672;10.014;2023-07-28T04:08:38;4.37;;;4.07;;
29362;SDS011;16349;53.672;10.014;2023-07-28T04:11:05;4.83;;;4.00;;
29362;SDS011;16349;53.672;10.014;2023-07-28T04:13:32;4.50;;;4.20;;
29362;SDS011;16349;53.672;10.014;2023-07-28T04:15:59;4.80;;;4.40;;
29362;SDS011;16349;53.672;10.014;2023-07-28T04:18:29;8.33;;;4.43;;
29362;SDS011;16349;53.672;10.014;2023-07-28T04:20:56;4.10;;;3.80;;
29362;SDS011;16349;53.672;10.014;2023-07-28T04:23:23;4.60;;;4.30;;
29362;SDS011;16349;53.672;10.014;2023-07-28T04:25:50;4.73;;;4.23;;
29362;SDS011;16349;53.672;10.014;2023-07-28T04:28:17;4.73;;;4.43;;
29362;SDS011;16349;53.672;10.014;2023-07-28T04:30:45;4.77;;;4.47;;
29362;SDS011;16349;53.672;10.014;2023-07-28T04:33:31;4.90;;;4.60;;
29362;SDS011;16349;53.672;10.014;2023-07-28T04:36:00;4.60;;;4.30;;
29362;SDS011;16349;53.672;10.014;2023-07-28T04:38:33;4.40;;;4.10;;
29362;SDS011;16349;53.672;10.014;2023-07-28T04:41:00;5.00;;;4.60;;
29362;SDS011;16349;53.672;10.014;2023-07-28T04:43:45;5.07;;;4.70;;
29362;SDS011;16349;53.672;10.014;2023-07-28T04:46:12;4.73;;;4.17;;
29362;SDS011;16349;53.672;10.014;2023-07-28T04:48:42;4.73;;;4.43;;
29362;SDS011;16349;53.672;10.014;2023-07-28T04:51:29;5.17;;;4.10;;
29362;SDS011;16349;53.672;10.014;2023-07-28T04:54:28;5.03;;;4.73;;
29362;SDS011;16349;53.672;10.014;2023-07-28T04:56:55;4.70;;;4.40;;
29362;SDS011;16349;53.672;10.014;2023-07-28T04:59:28;5.10;;;4.60;;
29362;SDS011;16349;53.672;10.014;2023-07-28T05:01:55;4.80;;;4.50;;
29362;SDS011;16349;53.672;10.014;2023-07-28T05:04:24;5.30;;;4.90;;
29362;SDS011;16349;53.672;10.014;2023-07-28T05:14:30;5.80;;;4.70;;
29362;SDS011;16349;53.672;10.014;2023-07-28T05:16:57;5.50;;;5.10;;
29362;SDS011;16349;53.672;10.014;2023-07-28T05:19:41;5.40;;;5.00;;
29362;SDS011;16349;53.672;10.014;2023-07-28T05:22:31;5.40;;;4.90;;
29362;SDS011;16349;53.672;10.014;2023-07-28T05:24:58;5.83;;;5.37;;
29362;SDS011;16349;53.672;10.014;2023-07-28T05:27:28;6.60;;;6.10;;
29362;SDS011;16349;53.672;10.014;2023-07-28T05:29:55;6.93;;;6.33;;
29362;SDS011;16349;53.672;10.014;2023-07-28T05:32:21;6.60;;;6.07;;
29362;SDS011;16349;53.672;10.014;2023-07-28T05:35:08;6.17;;;4.93;;
29362;SDS011;16349;53.672;10.014;2023-07-28T05:37:35;6.93;;;6.37;;
29362;SDS011;16349;53.672;10.014;2023-07-28T05:40:02;6.73;;;6.23;;
29362;SDS011;16349;53.672;10.014;2023-07-28T05:42:32;6.67;;;6.07;;
29362;SDS011;16349;53.672;10.014;2023-07-28T05:44:59;6.70;;;6.10;;
29362;SDS011;16349;53.672;10.014;2023-07-28T05:47:26;6.87;;;6.30;;
29362;SDS011;16349;53.672;10.014;2023-07-28T05:49:53;6.80;;;6.20;;
29362;SDS011;16349;53.672;10.014;2023-07-28T05:52:21;6.57;;;5.97;;
29362;SDS011;16349;53.672;10.014;2023-07-28T05:54:49;7.00;;;6.40;;
29362;SDS011;16349;53.672;10.014;2023-07-28T05:57:16;7.50;;;6.80;;
29362;SDS011;16349;53.672;10.014;2023-07-28T05:59:42;6.97;;;6.47;;
29362;SDS011;16349;53.672;10.014;2023-07-28T06:02:09;6.50;;;5.90;;
29362;SDS011;16349;53.672;10.014;2023-07-28T06:04:54;6.97;;;6.40;;
29362;SDS011;16349;53.672;10.014;2023-07-28T06:07:22;7.90;;;6.40;;
29362;SDS011;16349;53.672;10.014;2023-07-28T06:09:51;7.07;;;6.57;;
29362;SDS011;16349;53.672;10.014;2023-07-28T06:12:18;6.07;;;5.67;;
29362;SDS011;16349;53.672;10.014;2023-07-28T06:14:45;7.47;;;6.10;;
29362;SDS011;16349;53.672;10.014;2023-07-28T06:17:12;6.67;;;6.07;;
29362;SDS011;16349;53.672;10.014;2023-07-28T06:19:38;6.70;;;6.10;;
29362;SDS011;16349;53.672;10.014;2023-07-28T06:22:05;6.93;;;6.27;;
29362;SDS011;16349;53.672;10.014;2023-07-28T06:24:39;6.83;;;6.23;;
29362;SDS011;16349;53.672;10.014;2023-07-28T06:27:06;6.40;;;5.83;;
29362;SDS011;16349;53.672;10.014;2023-07-28T06:29:36;6.83;;;6.23;;
29362;SDS011;16349;53.672;10.014;2023-07-28T06:32:03;7.03;;;6.43;;
29362;SDS011;16349;53.672;10.014;2023-07-28T06:34:31;6.07;;;5.57;;
29362;SDS011;16349;53.672;10.014;2023-07-28T06:36:57;6.37;;;5.80;;
29362;SDS011;16349;53.672;10.014;2023-07-28T06:39:24;5.30;;;4.80;;
29362;SDS011;16349;53.672;10.014;2023-07-28T06:41:53;4.77;;;4.47;;
29362;SDS011;16349;53.672;10.014;2023-07-28T06:44:20;6.07;;;5.57;;
29362;SDS011;16349;53.672;10.014;2023-07-28T06:46:47;4.60;;;4.30;;
29362;SDS011;16349;53.672;10.014;2023-07-28T06:49:14;5.40;;;4.90;;
29362;SDS011;16349;53.672;10.014;2023-07-28T06:51:41;5.47;;;4.50;;
29362;SDS011;16349;53.672;10.014;2023-07-28T06:54:10;5.17;;;4.60;;
29362;SDS011;16349;53.672;10.014;2023-07-28T06:56:38;5.10;;;4.80;;
29362;SDS011;16349;53.672;10.014;2023-07-28T06:59:07;5.00;;;4.47;;
29362;SDS011;16349;53.672;10.014;2023-07-28T07:01:34;5.30;;;4.90;;
29362;SDS011;16349;53.672;10.014;2023-07-28T07:04:01;5.97;;;4.93;;
29362;SDS011;16349;53.672;10.014;2023-07-28T07:06:30;4.70;;;4.30;;
29362;SDS011;16349;53.672;10.014;2023-07-28T07:08:57;5.20;;;4.80;;
29362;SDS011;16349;53.672;10.014;2023-07-28T07:11:23;5.50;;;5.00;;
29362;SDS011;16349;53.672;10.014;2023-07-28T07:13:50;5.23;;;4.83;;
29362;SDS011;16349;53.672;10.014;2023-07-28T07:16:19;5.03;;;4.70;;
29362;SDS011;16349;53.672;10.014;2023-07-28T07:18:45;5.33;;;4.93;;
29362;SDS011;16349;53.672;10.014;2023-07-28T07:21:11;4.57;;;4.20;;
29362;SDS011;16349;53.672;10.014;2023-07-28T07:23:38;4.80;;;4.50;;
29362;SDS011;16349;53.672;10.014;2023-07-28T07:26:24;5.23;;;4.73;;
29362;SDS011;16349;53.672;10.014;2023-07-28T07:28:51;5.63;;;5.23;;
29362;SDS011;16349;53.672;10.014;2023-07-28T07:31:19;5.40;;;4.90;;
29362;SDS011;16349;53.672;10.014;2023-07-28T07:33:46;5.23;;;4.83;;
29362;SDS011;16349;53.672;10.014;2023-07-28T07:36:13;5.43;;;5.03;;
29362;SDS011;16349;53.672;10.014;2023-07-28T07:38:40;4.83;;;4.43;;
29362;SDS011;16349;53.672;10.014;2023-07-28T07:41:07;4.47;;;4.17;;
29362;SDS011;16349;53.672;10.014;2023-07-28T07:43:36;5.47;;;5.07;;
29362;SDS011;16349;53.672;10.014;2023-07-28T07:46:03;4.50;;;4.20;;
29362;SDS011;16349;53.672;10.014;2023-07-28T07:48:31;5.40;;;5.00;;
29362;SDS011;16349;53.672;10.014;2023-07-28T07:50:58;4.23;;;3.93;;
29362;SDS011;16349;53.672;10.014;2023-07-28T07:53:25;4.37;;;3.97;;
29362;SDS011;16349;53.672;10.014;2023-07-28T07:55:52;4.37;;;4.00;;
29362;SDS011;16349;53.672;10.014;2023-07-28T07:58:19;4.63;;;4.30;;
29362;SDS011;16349;53.672;10.014;2023-07-28T08:00:46;3.63;;;3.40;;
29362;SDS011;16349;53.672;10.014;2023-07-28T08:03:12;5.60;;;4.10;;
29362;SDS011;16349;53.672;10.014;2023-07-28T08:05:41;3.00;;;2.73;;
29362;SDS011;16349;53.672;10.014;2023-07-28T08:08:08;3.50;;;3.20;;
29362;SDS011;16349;53.672;10.014;2023-07-28T08:10:35;3.57;;;2.90;;
29362;SDS011;16349;53.672;10.014;2023-07-28T08:13:02;2.93;;;2.73;;
29362;SDS011;16349;53.672;10.014;2023-07-28T08:15:29;3.07;;;2.87;;
29362;SDS011;16349;53.672;10.014;2023-07-28T08:17:56;3.33;;;2.80;;
29362;SDS011;16349;53.672;10.014;2023-07-28T08:20:23;4.17;;;2.67;;
29362;SDS011;16349;53.672;10.014;2023-07-28T08:22:51;3.53;;;2.97;;
29362;SDS011;16349;53.672;10.014;2023-07-28T08:25:18;3.37;;;3.00;;
29362;SDS011;16349;53.672;10.014;2023-07-28T08:27:45;3.30;;;3.00;;
29362;SDS011;16349;53.672;10.014;2023-07-28T08:30:12;2.77;;;2.57;;
29362;SDS011;16349;53.672;10.014;2023-07-28T08:32:40;3.87;;;3.60;;
29362;SDS011;16349;53.672;10.014;2023-07-28T08:35:08;3.03;;;2.83;;
29362;SDS011;16349;53.672;10.014;2023-07-28T08:37:35;3.80;;;2.87;;
29362;SDS011;16349;53.672;10.014;2023-07-28T08:40:03;2.80;;;2.60;;
29362;SDS011;16349;53.672;10.014;2023-07-28T08:42:35;5.10;;;2.40;;
29362;SDS011;16349;53.672;10.014;2023-07-28T08:45:03;2.60;;;2.30;;
29362;SDS011;16349;53.672;10.014;2023-07-28T08:47:32;2.40;;;2.30;;
29362;SDS011;16349;53.672;10.014;2023-07-28T08:49:59;2.90;;;2.53;;
29362;SDS011;16349;53.672;10.014;2023-07-28T08:52:26;2.70;;;2.50;;
29362;SDS011;16349;53.672;10.014;2023-07-28T08:54:53;2.57;;;2.20;;
29362;SDS011;16349;53.672;10.014;2023-07-28T08:57:22;2.03;;;1.93;;
29362;SDS011;16349;53.672;10.014;2023-07-28T08:59:49;2.53;;;2.33;;
29362;SDS011;16349;53.672;10.014;2023-07-28T09:02:17;2.03;;;1.93;;
29362;SDS011;16349;53.672;10.014;2023-07-28T09:04:45;2.03;;;1.90;;
29362;SDS011;16349;53.672;10.014;2023-07-28T09:07:13;2.40;;;2.20;;
29362;SDS011;16349;53.672;10.014;2023-07-28T09:09:40;2.33;;;2.23;;
29362;SDS011;16349;53.672;10.014;2023-07-28T09:12:07;2.10;;;2.00;;
29362;SDS011;16349;53.672;10.014;2023-07-28T09:14:36;2.42;;;2.30;;
29362;SDS011;16349;53.672;10.014;2023-07-28T09:17:07;2.00;;;1.90;;
29362;SDS011;16349;53.672;10.014;2023-07-28T09:19:35;2.30;;;2.10;;
29362;SDS011;16349;53.672;10.014;2023-07-28T09:22:15;2.70;;;2.50;;
29362;SDS011;16349;53.672;10.014;2023-07-28T09:24:43;3.10;;;2.10;;
29362;SDS011;16349;53.672;10.014;2023-07-28T09:27:18;2.07;;;1.97;;
29362;SDS011;16349;53.672;10.014;2023-07-28T09:29:48;2.93;;;2.80;;
29362;SDS011;16349;53.672;10.014;2023-07-28T09:32:16;2.20;;;2.00;;
29362;SDS011;16349;53.672;10.014;2023-07-28T09:34:56;2.70;;;2.50;;
29362;SDS011;16349;53.672;10.014;2023-07-28T09:37:34;3.00;;;2.80;;
29362;SDS011;16349;53.672;10.014;2023-07-28T09:40:03;2.15;;;2.05;;
29362;SDS011;16349;53.672;10.014;2023-07-28T09:42:35;2.75;;;2.50;;
29362;SDS011;16349;53.672;10.014;2023-07-28T09:45:04;2.58;;;2.40;;
29362;SDS011;16349;53.672;10.014;2023-07-28T09:47:32;2.60;;;2.38;;
29362;SDS011;16349;53.672;10.014;2023-07-28T09:49:59;2.50;;;2.30;;
29362;SDS011;16349;53.672;10.014;2023-07-28T09:52:30;3.03;;;2.30;;
29362;SDS011;16349;53.672;10.014;2023-07-28T09:55:04;1.98;;;1.88;;
29362;SDS011;16349;53.672;10.014;2023-07-28T09:57:35;2.40;;;1.95;;
29362;SDS011;16349;53.672;10.014;2023-07-28T10:00:07;2.45;;;2.25;;
29362;SDS011;16349;53.672;10.014;2023-07-28T10:02:39;2.17;;;1.70;;
29362;SDS011;16349;53.672;10.014;2023-07-28T10:05:07;2.75;;;2.55;;
29362;SDS011;16349;53.672;10.014;2023-07-28T10:07:36;2.15;;;2.05;;
29362;SDS011;16349;53.672;10.014;2023-07-28T10:10:05;2.30;;;2.10;;
29362;SDS011;16349;53.672;10.014;2023-07-28T10:12:41;2.00;;;1.90;;
29362;SDS011;16349;53.672;10.014;2023-07-28T10:15:13;3.13;;;2.55;;
29362;SDS011;16349;53.672;10.014;2023-07-28T10:17:43;3.85;;;2.10;;
29362;SDS011;16349;53.672;10.014;2023-07-28T10:20:29;2.20;;;2.00;;
29362;SDS011;16349;53.672;10.014;2023-07-28T10:23:07;2.28;;;2.17;;
29362;SDS011;16349;53.672;10.014;2023-07-28T10:25:38;2.13;;;1.98;;
29362;SDS011;16349;53.672;10.014;2023-07-28T10:28:06;2.92;;;2.58;;
29362;SDS011;16349;53.672;10.014;2023-07-28T10:30:36;2.85;;;2.22;;
29362;SDS011;16349;53.672;10.014;2023-07-28T10:33:05;1.77;;;1.67;;
29362;SDS011;16349;53.672;10.014;2023-07-28T10:35:32;1.73;;;1.63;;
29362;SDS011;16349;53.672;10.014;2023-07-28T10:41:06;1.83;;;1.73;;
29362;SDS011;16349;53.672;10.014;2023-07-28T10:43:35;1.60;;;1.50;;
29362;SDS011;16349;53.672;10.014;2023-07-28T10:46:03;2.05;;;1.70;;
29362;SDS011;16349;53.672;10.014;2023-07-28T10:48:31;3.22;;;1.83;;
29362;SDS011;16349;53.672;10.014;2023-07-28T10:50:58;1.48;;;1.38;;
29362;SDS011;16349;53.672;10.014;2023-07-28T10:53:25;1.70;;;1.60;;
29362;SDS011;16349;53.672;10.014;2023-07-28T10:55:52;1.83;;;1.73;;
29362;SDS011;16349;53.672;10.014;2023-07-28T10:58:19;1.70;;;1.60;;
29362;SDS011;16349;53.672;10.014;2023-07-28T11:00:46;1.80;;;1.70;;
29362;SDS011;16349;53.672;10.014;2023-07-28T11:03:14;1.90;;;1.80;;
29362;SDS011;16349;53.672;10.014;2023-07-28T11:05:41;1.70;;;1.60;;
29362;SDS011;16349;53.672;10.014;2023-07-28T11:08:08;1.92;;;1.83;;
29362;SDS011;16349;53.672;10.014;2023-07-28T11:10:36;1.70;;;1.60;;
29362;SDS011;16349;53.672;10.014;2023-07-28T11:13:05;1.83;;;1.73;;
29362;SDS011;16349;53.672;10.014;2023-07-28T11:15:32;2.00;;;1.90;;
29362;SDS011;16349;53.672;10.014;2023-07-28T11:18:00;1.80;;;1.70;;
29362;SDS011;16349;53.672;10.014;2023-07-28T11:20:32;1.33;;;1.30;;
29362;SDS011;16349;53.672;10.014;2023-07-28T11:22:59;2.00;;;1.90;;
29362;SDS011;16349;53.672;10.014;2023-07-28T11:25:29;2.20;;;2.10;;
29362;SDS011;16349;53.672;10.014;2023-07-28T11:27:57;1.88;;;1.77;;
29362;SDS011;16349;53.672;10.014;2023-07-28T11:30:26;1.85;;;1.75;;
29362;SDS011;16349;53.672;10.014;2023-07-28T11:32:53;1.73;;;1.63;;
29362;SDS011;16349;53.672;10.014;2023-07-28T11:35:20;2.22;;;2.00;;
29362;SDS011;16349;53.672;10.014;2023-07-28T11:37:50;1.60;;;1.50;;
29362;SDS011;16349;53.672;10.014;2023-07-28T11:40:19;1.30;;;1.20;;
29362;SDS011;16349;53.672;10.014;2023-07-28T11:42:48;1.58;;;1.48;;
29362;SDS011;16349;53.672;10.014;2023-07-28T11:45:17;2.45;;;1.70;;
29362;SDS011;16349;53.672;10.014;2023-07-28T11:50:24;1.95;;;1.85;;
29362;SDS011;16349;53.672;10.014;2023-07-28T11:52:54;1.50;;;1.45;;
29362;SDS011;16349;53.672;10.014;2023-07-28T11:55:21;1.30;;;1.20;;
29362;SDS011;16349;53.672;10.014;2023-07-28T11:57:49;2.08;;;1.98;;
29362;SDS011;16349;53.672;10.014;2023-07-28T12:00:17;1.27;;;1.27;;
29362;SDS011;16349;53.672;10.014;2023-07-28T12:02:59;1.67;;;1.58;;
29362;SDS011;16349;53.672;10.014;2023-07-28T12:05:28;1.73;;;1.63;;
29362;SDS011;16349;53.672;10.014;2023-07-28T12:07:57;2.05;;;1.90;;
29362;SDS011;16349;53.672;10.014;2023-07-28T12:10:24;1.70;;;1.60;;
29362;SDS011;16349;53.672;10.014;2023-07-28T12:12:51;2.00;;;1.90;;
29362;SDS011;16349;53.672;10.014;2023-07-28T12:15:21;2.35;;;2.25;;
29362;SDS011;16349;53.672;10.014;2023-07-28T12:18:03;1.98;;;1.88;;
29362;SDS011;16349;53.672;10.014;2023-07-28T12:20:35;2.00;;;1.90;;
29362;SDS011;16349;53.672;10.014;2023-07-28T12:23:08;2.75;;;1.95;;
29362;SDS011;16349;53.672;10.014;2023-07-28T12:25:35;1.88;;;1.77;;
29362;SDS011;16349;53.672;10.014;2023-07-28T12:28:03;2.15;;;2.05;;
29362;SDS011;16349;53.672;10.014;2023-07-28T12:30:31;2.95;;;1.75;;
29362;SDS011;16349;53.672;10.014;2023-07-28T12:32:57;2.60;;;2.40;;
29362;SDS011;16349;53.672;10.014;2023-07-28T12:35:25;2.13;;;2.03;;
29362;SDS011;16349;53.672;10.014;2023-07-28T12:37:56;3.03;;;2.40;;
29362;SDS011;16349;53.672;10.014;2023-07-28T12:40:27;2.33;;;2.22;;
29362;SDS011;16349;53.672;10.014;2023-07-28T12:42:54;2.20;;;2.10;;
29362;SDS011;16349;53.672;10.014;2023-07-28T12:45:21;2.47;;;2.28;;
29362;SDS011;16349;53.672;10.014;2023-07-28T12:47:50;1.80;;;1.70;;
29362;SDS011;16349;53.672;10.014;2023-07-28T12:50:18;2.30;;;2.20;;
29362;SDS011;16349;53.672;10.014;2023-07-28T12:52:45;1.80;;;1.70;;
29362;SDS011;16349;53.672;10.014;2023-07-28T12:55:13;4.40;;;1.65;;
29362;SDS011;16349;53.672;10.014;2023-07-28T12:57:42;1.95;;;1.85;;
29362;SDS011;16349;53.672;10.014;2023-07-28T13:00:09;2.47;;;2.38;;
29362;SDS011;16349;53.672;10.014;2023-07-28T13:02:39;1.73;;;1.63;;
29362;SDS011;16349;53.672;10.014;2023-07-28T13:05:06;2.00;;;1.90;;
29362;SDS011;16349;53.672;10.014;2023-07-28T13:07:35;1.50;;;1.40;;
29362;SDS011;16349;53.672;10.014;2023-07-28T13:10:02;1.48;;;1.38;;
29362;SDS011;16349;53.672;10.014;2023-07-28T13:12:30;1.70;;;1.60;;
29362;SDS011;16349;53.672;10.014;2023-07-28T13:14:59;1.40;;;1.30;;
29362;SDS011;16349;53.672;10.014;2023-07-28T13:17:26;1.30;;;1.20;;
29362;SDS011;16349;53.672;10.014;2023-07-28T13:19:52;1.50;;;1.40;;
29362;SDS011;16349;53.672;10.014;2023-07-28T13:22:22;1.40;;;1.30;;
29362;SDS011;16349;53.672;10.014;2023-07-28T13:24:49;1.23;;;1.20;;
29362;SDS011;16349;53.672;10.014;2023-07-28T13:27:16;1.23;;;1.23;;
29362;SDS011;16349;53.672;10.014;2023-07-28T13:29:42;1.70;;;1.60;;
29362;SDS011;16349;53.672;10.014;2023-07-28T13:32:17;1.42;;;1.33;;
29362;SDS011;16349;53.672;10.014;2023-07-28T13:34:48;1.20;;;1.20;;
29362;SDS011;16349;53.672;10.014;2023-07-28T13:37:15;1.17;;;1.17;;
29362;SDS011;16349;53.672;10.014;2023-07-28T13:39:42;1.17;;;1.08;;
29362;SDS011;16349;53.672;10.014;2023-07-28T13:42:09;1.10;;;1.10;;
29362;SDS011;16349;53.672;10.014;2023-07-28T13:44:37;0.88;;;0.88;;
29362;SDS011;16349;53.672;10.014;2023-07-28T13:47:05;2.28;;;1.02;;
29362;SDS011;16349;53.672;10.014;2023-07-28T13:52:25;1.27;;;1.27;;
29362;SDS011;16349;53.672;10.014;2023-07-28T13:54:52;1.10;;;1.00;;
29362;SDS011;16349;53.672;10.014;2023-07-28T13:57:19;1.27;;;1.20;;
29362;SDS011;16349;53.672;10.014;2023-07-28T13:59:46;0.82;;;0.82;;
29362;SDS011;16349;53.672;10.014;2023-07-28T14:02:13;0.90;;;0.90;;
29362;SDS011;16349;53.672;10.014;2023-07-28T14:04:41;0.90;;;0.90;;
29362;SDS011;16349;53.672;10.014;2023-07-28T14:07:09;1.00;;;1.00;;
29362;SDS011;16349;53.672;10.014;2023-07-28T14:09:36;0.90;;;0.90;;
29362;SDS011;16349;53.672;10.014;2023-07-28T14:12:04;0.80;;;0.80;;
29362;SDS011;16349;53.672;10.014;2023-07-28T14:14:31;0.70;;;0.70;;
29362;SDS011;16349;53.672;10.014;2023-07-28T14:16:58;1.00;;;1.00;;
29362;SDS011;16349;53.672;10.014;2023-07-28T14:19:33;0.80;;;0.80;;
29362;SDS011;16349;53.672;10.014;2023-07-28T14:22:09;0.70;;;0.70;;
29362;SDS011;16349;53.672;10.014;2023-07-28T14:24:36;1.67;;;0.80;;
29362;SDS011;16349;53.672;10.014;2023-07-28T14:27:05;0.80;;;0.80;;
29362;SDS011;16349;53.672;10.014;2023-07-28T14:29:36;1.45;;;0.70;;
29362;SDS011;16349;53.672;10.014;2023-07-28T14:32:07;1.42;;;0.70;;
29362;SDS011;16349;53.672;10.014;2023-07-28T14:34:37;1.88;;;0.75;;
29362;SDS011;16349;53.672;10.014;2023-07-28T14:37:04;0.65;;;0.65;;
29362;SDS011;16349;53.672;10.014;2023-07-28T14:39:33;0.70;;;0.70;;
29362;SDS011;16349;53.672;10.014;2023-07-28T14:42:00;0.60;;;0.60;;
29362;SDS011;16349;53.672;10.014;2023-07-28T14:44:27;1.70;;;0.80;;
29362;SDS011;16349;53.672;10.014;2023-07-28T14:46:54;2.97;;;0.77;;
29362;SDS011;16349;53.672;10.014;2023-07-28T14:49:21;1.20;;;1.10;;
29362;SDS011;16349;53.672;10.014;2023-07-28T14:51:52;3.00;;;0.80;;
29362;SDS011;16349;53.672;10.014;2023-07-28T14:54:19;1.10;;;1.00;;
29362;SDS011;16349;53.672;10.014;2023-07-28T14:56:47;1.00;;;1.00;;
29362;SDS011;16349;53.672;10.014;2023-07-28T14:59:14;0.90;;;0.90;;